createdAt,value
2018-02-27T00:02:07.773Z,102624.09
2018-02-27T00:09:29.500Z,102609.73
2018-02-27T00:11:57.209Z,102609.81
2018-02-27T00:14:24.897Z,102604.09
2018-02-27T00:16:52.928Z,102604.87
2018-02-27T00:19:20.625Z,102600.20
2018-02-27T00:21:48.356Z,102593.97
2018-02-27T00:24:16.061Z,102602.06
2018-02-27T00:26:43.789Z,102600.80
2018-02-27T00:29:11.517Z,102590.44
2018-02-27T00:31:39.196Z,102586.20
2018-02-27T00:34:06.900Z,102577.54
2018-02-27T00:36:34.584Z,102571.77
2018-02-27T00:39:02.299Z,102572.01
2018-02-27T00:41:29.985Z,102567.86
2018-02-27T00:43:57.705Z,102570.47
2018-02-27T00:46:25.392Z,102565.03
2018-02-27T00:48:53.201Z,102564.55
2018-02-27T00:51:20.878Z,102561.41
2018-02-27T00:53:48.566Z,102568.31
2018-02-27T00:56:16.274Z,102564.69
2018-02-27T00:58:44.016Z,102565.55
2018-02-27T01:01:11.725Z,102556.50
2018-02-27T01:03:39.412Z,102547.56
2018-02-27T01:06:07.121Z,102549.05
2018-02-27T01:08:34.812Z,102550.27
2018-02-27T01:11:02.524Z,102547.27
2018-02-27T01:13:30.208Z,102545.48
2018-02-27T01:15:57.909Z,102546.62
2018-02-27T01:18:25.600Z,102536.66
2018-02-27T01:20:53.305Z,102529.75
2018-02-27T01:23:20.996Z,102532.07
2018-02-27T01:25:48.710Z,102530.02
2018-02-27T01:28:16.419Z,102533.36
2018-02-27T01:30:44.104Z,102530.08
2018-02-27T01:33:11.817Z,102523.25
2018-02-27T01:35:39.513Z,102518.31
2018-02-27T01:38:07.212Z,102518.13
2018-02-27T01:40:34.897Z,102510.04
2018-02-27T01:43:02.609Z,102506.77
2018-02-27T01:45:30.300Z,102505.69
2018-02-27T01:47:58.100Z,102498.25
2018-02-27T01:50:25.790Z,102490.78
2018-02-27T01:52:53.501Z,102481.64
2018-02-27T01:55:21.182Z,102480.59
2018-02-27T01:57:48.884Z,102478.77
2018-02-27T02:00:16.572Z,102467.58
2018-02-27T02:02:44.305Z,102460.59
2018-02-27T02:05:11.989Z,102463.73
2018-02-27T02:07:39.712Z,102461.20
2018-02-27T02:10:07.421Z,102447.99
2018-02-27T02:12:35.142Z,102446.75
2018-02-27T02:15:02.901Z,102449.95
2018-02-27T02:17:30.584Z,102443.50
2018-02-27T02:19:58.293Z,102438.39
2018-02-27T02:22:25.981Z,102428.64
2018-02-27T02:24:53.765Z,102430.22
2018-02-27T02:27:21.528Z,102434.70
2018-02-27T02:29:49.217Z,102429.97
2018-02-27T02:32:16.926Z,102423.69
2018-02-27T02:34:44.717Z,102420.39
2018-02-27T02:37:12.490Z,102413.70
2018-02-27T02:39:40.174Z,102407.43
2018-02-27T02:42:24.641Z,102403.61
2018-02-27T02:44:52.375Z,102407.52
2018-02-27T02:47:20.992Z,102408.34
2018-02-27T02:49:48.677Z,102410.47
2018-02-27T02:52:16.479Z,102398.58
2018-02-27T02:54:44.161Z,102398.00
2018-02-27T02:57:11.908Z,102396.97
2018-02-27T02:59:39.680Z,102394.23
2018-02-27T03:02:07.363Z,102391.06
2018-02-27T03:04:35.072Z,102391.64
2018-02-27T03:07:02.773Z,102384.05
2018-02-27T03:09:30.489Z,102381.08
2018-02-27T03:11:58.186Z,102383.16
2018-02-27T03:14:25.962Z,102381.90
2018-02-27T03:16:53.645Z,102378.66
2018-02-27T03:19:21.352Z,102380.80
2018-02-27T03:21:49.061Z,102374.92
2018-02-27T03:24:16.753Z,102375.37
2018-02-27T03:26:44.462Z,102374.92
2018-02-27T03:29:12.140Z,102361.90
2018-02-27T03:31:39.851Z,102364.43
2018-02-27T03:34:07.541Z,102354.41
2018-02-27T03:36:35.250Z,102349.34
2018-02-27T03:39:02.938Z,102348.80
2018-02-27T03:41:30.644Z,102341.97
2018-02-27T03:43:58.341Z,102334.58
2018-02-27T03:46:26.084Z,102329.73
2018-02-27T03:48:53.797Z,102325.42
2018-02-27T03:51:21.489Z,102328.67
2018-02-27T03:53:49.192Z,102330.23
2018-02-27T03:56:16.881Z,102323.16
2018-02-27T03:58:44.616Z,102325.77
2018-02-27T04:01:12.304Z,102321.69
2018-02-27T04:03:40.009Z,102319.44
2018-02-27T04:06:07.709Z,102309.25
2018-02-27T04:08:35.440Z,102309.18
2018-02-27T04:11:03.124Z,102316.70
2018-02-27T04:13:30.901Z,102307.61
2018-02-27T04:15:58.661Z,102311.16
2018-02-27T04:18:26.428Z,102311.75
2018-02-27T04:20:54.133Z,102300.27
2018-02-27T04:23:21.852Z,102301.70
2018-02-27T04:25:49.624Z,102303.50
2018-02-27T04:28:17.385Z,102299.47
2018-02-27T04:30:45.101Z,102292.36
2018-02-27T04:33:12.819Z,102297.88
2018-02-27T04:35:40.535Z,102288.88
2018-02-27T04:38:08.289Z,102287.16
2018-02-27T04:40:35.981Z,102289.27
2018-02-27T04:43:03.665Z,102289.80
2018-02-27T04:45:31.439Z,102286.22
2018-02-27T04:47:59.124Z,102286.31
2018-02-27T04:50:26.970Z,102277.66
2018-02-27T04:52:54.732Z,102268.14
2018-02-27T04:55:22.496Z,102260.65
2018-02-27T04:57:50.200Z,102262.23
2018-02-27T05:00:17.888Z,102255.91
2018-02-27T05:02:45.597Z,102255.42
2018-02-27T05:05:13.356Z,102250.93
2018-02-27T05:07:41.126Z,102244.11
2018-02-27T05:10:08.821Z,102244.78
2018-02-27T05:12:36.557Z,102245.05
2018-02-27T05:15:04.212Z,102241.55
2018-02-27T05:17:31.924Z,102236.16
2018-02-27T05:19:59.608Z,102242.22
2018-02-27T05:22:27.410Z,102237.92
2018-02-27T05:24:55.090Z,102238.58
2018-02-27T05:27:22.802Z,102229.16
2018-02-27T05:29:50.586Z,102219.30
2018-02-27T05:32:18.364Z,102224.45
2018-02-27T05:34:46.225Z,102215.10
2018-02-27T05:37:13.909Z,102213.19
2018-02-27T05:39:41.660Z,102206.80
2018-02-27T05:42:09.424Z,102208.92
2018-02-27T05:44:37.130Z,102201.38
2018-02-27T05:47:04.816Z,102202.20
2018-02-27T05:49:32.521Z,102201.34
2018-02-27T05:52:00.200Z,102206.71
2018-02-27T05:54:27.910Z,102205.92
2018-02-27T05:56:55.609Z,102202.88
2018-02-27T05:59:23.365Z,102208.34
2018-02-27T06:01:51.048Z,102209.91
2018-02-27T06:04:18.757Z,102207.76
2018-02-27T06:06:46.478Z,102211.96
2018-02-27T06:09:14.184Z,102205.50
2018-02-27T06:11:41.869Z,102204.03
2018-02-27T06:14:09.650Z,102198.01
2018-02-27T06:16:37.429Z,102200.84
2018-02-27T06:19:05.140Z,102195.20
2018-02-27T06:21:32.829Z,102190.91
2018-02-27T06:24:00.537Z,102191.83
2018-02-27T06:26:28.374Z,102192.36
2018-02-27T06:28:56.085Z,102200.48
2018-02-27T06:31:23.836Z,102185.02
2018-02-27T06:33:51.581Z,102190.23
2018-02-27T06:36:19.292Z,102186.18
2018-02-27T06:38:47.004Z,102196.17
2018-02-27T06:41:14.708Z,102193.42
2018-02-27T06:43:42.397Z,102185.53
2018-02-27T06:46:10.117Z,102174.76
2018-02-27T06:48:37.809Z,102172.16
2018-02-27T06:51:05.517Z,102175.50
2018-02-27T06:53:33.289Z,102179.77
2018-02-27T06:56:00.988Z,102187.45
2018-02-27T06:58:28.673Z,102194.52
2018-02-27T07:00:56.381Z,102197.73
2018-02-27T07:03:24.242Z,102200.53
2018-02-27T07:05:52.012Z,102199.05
2018-02-27T07:08:19.705Z,102197.91
2018-02-27T07:10:47.413Z,102202.45
2018-02-27T07:13:15.204Z,102203.56
2018-02-27T07:15:42.917Z,102199.31
2018-02-27T07:18:10.596Z,102197.50
2018-02-27T07:20:38.309Z,102202.59
2018-02-27T07:23:05.999Z,102204.58
2018-02-27T07:25:33.708Z,102204.41
2018-02-27T07:28:01.393Z,102201.53
2018-02-27T07:30:29.144Z,102196.17
2018-02-27T07:32:56.837Z,102194.34
2018-02-27T07:35:24.585Z,102192.04
2018-02-27T07:37:52.353Z,102185.16
2018-02-27T07:40:20.207Z,102190.75
2018-02-27T07:42:47.981Z,102188.55
2018-02-27T07:45:15.665Z,102192.25
2018-02-27T07:47:43.373Z,102194.06
2018-02-27T07:50:11.056Z,102192.29
2018-02-27T07:52:38.761Z,102193.91
2018-02-27T07:55:06.457Z,102189.05
2018-02-27T07:57:34.264Z,102187.16
2018-02-27T08:00:01.945Z,102192.03
2018-02-27T08:02:29.694Z,102184.42
2018-02-27T08:04:57.456Z,102186.30
2018-02-27T08:07:25.169Z,102188.69
2018-02-27T08:09:53.785Z,102190.56
2018-02-27T08:12:22.473Z,102190.23
2018-02-27T08:14:50.190Z,102193.30
2018-02-27T08:17:17.924Z,102200.34
2018-02-27T08:19:45.691Z,102197.30
2018-02-27T08:22:13.449Z,102205.88
2018-02-27T08:24:41.213Z,102206.33
2018-02-27T08:27:08.984Z,102206.73
2018-02-27T08:29:36.696Z,102199.31
2018-02-27T08:32:04.408Z,102207.22
2018-02-27T08:34:32.181Z,102211.70
2018-02-27T08:36:59.876Z,102210.32
2018-02-27T08:39:27.586Z,102205.28
2018-02-27T08:41:55.372Z,102201.27
2018-02-27T08:44:23.104Z,102211.88
2018-02-27T08:46:50.894Z,102202.84
2018-02-27T08:49:18.576Z,102203.95
2018-02-27T08:51:46.327Z,102208.70
2018-02-27T08:54:14.014Z,102207.41
2018-02-27T08:56:41.725Z,102205.38
2018-02-27T08:59:09.405Z,102204.59
2018-02-27T09:01:37.108Z,102203.50
2018-02-27T09:04:04.844Z,102198.39
2018-02-27T09:06:32.617Z,102203.34
2018-02-27T09:09:00.377Z,102198.25
2018-02-27T09:11:28.140Z,102196.68
2018-02-27T09:13:55.909Z,102200.45
2018-02-27T09:16:23.617Z,102191.48
2018-02-27T09:18:51.309Z,102199.78
2018-02-27T09:21:19.043Z,102195.91
2018-02-27T09:23:46.769Z,102191.46
2018-02-27T09:26:14.529Z,102189.87
2018-02-27T09:28:42.243Z,102190.32
2018-02-27T09:31:09.962Z,102189.45
2018-02-27T09:33:37.677Z,102191.48
2018-02-27T09:36:05.389Z,102182.38
2018-02-27T09:38:33.213Z,102182.33
2018-02-27T09:41:00.912Z,102181.02
2018-02-27T09:43:28.678Z,102185.02
2018-02-27T09:45:56.376Z,102175.47
2018-02-27T09:48:24.084Z,102176.09
2018-02-27T09:50:51.765Z,102174.09
2018-02-27T09:53:19.497Z,102171.36
2018-02-27T09:55:47.204Z,102163.09
2018-02-27T09:58:14.969Z,102163.69
2018-02-27T10:00:42.669Z,102166.78
2018-02-27T10:03:10.413Z,102173.22
2018-02-27T10:05:38.156Z,102167.20
2018-02-27T10:08:05.932Z,102160.31
2018-02-27T10:10:33.692Z,102165.49
2018-02-27T10:13:01.377Z,102161.84
2018-02-27T10:15:29.121Z,102151.54
2018-02-27T10:17:56.817Z,102147.58
2018-02-27T10:20:24.548Z,102151.09
2018-02-27T10:22:52.317Z,102163.89
2018-02-27T10:25:20.024Z,102152.48
2018-02-27T10:27:47.709Z,102143.20
2018-02-27T10:30:15.412Z,102142.77
2018-02-27T10:32:43.096Z,102138.41
2018-02-27T10:35:10.838Z,102139.58
2018-02-27T10:37:38.528Z,102135.81
2018-02-27T10:40:06.257Z,102131.80
2018-02-27T10:42:34.032Z,102119.83
2018-02-27T10:45:01.717Z,102121.41
2018-02-27T10:47:29.426Z,102123.65
2018-02-27T10:49:57.112Z,102117.52
2018-02-27T10:52:24.821Z,102124.78
2018-02-27T10:54:52.558Z,102118.36
2018-02-27T10:57:20.240Z,102125.11
2018-02-27T10:59:47.925Z,102129.83
2018-02-27T11:02:15.624Z,102126.00
2018-02-27T11:04:43.300Z,102129.88
2018-02-27T11:07:11.009Z,102123.45
2018-02-27T11:09:38.737Z,102131.48
2018-02-27T11:12:06.496Z,102128.94
2018-02-27T11:14:34.175Z,102133.06
2018-02-27T11:17:01.928Z,102135.94
2018-02-27T11:19:29.688Z,102133.05
2018-02-27T11:21:57.390Z,102139.13
2018-02-27T11:24:25.102Z,102138.09
2018-02-27T11:26:52.788Z,102133.65
2018-02-27T11:29:20.497Z,102134.20
2018-02-27T11:31:48.184Z,102132.29
2018-02-27T11:34:15.900Z,102126.89
2018-02-27T11:36:43.650Z,102127.59
2018-02-27T11:39:11.360Z,102130.91
2018-02-27T11:41:39.080Z,102133.52
2018-02-27T11:44:06.824Z,102136.02
2018-02-27T11:46:34.516Z,102131.55
2018-02-27T11:49:02.208Z,102132.30
2018-02-27T11:51:30.041Z,102145.17
2018-02-27T11:53:57.796Z,102136.37
2018-02-27T11:56:25.585Z,102141.30
2018-02-27T11:58:53.337Z,102143.95
2018-02-27T12:01:21.105Z,102140.13
2018-02-27T12:03:48.956Z,102140.66
2018-02-27T12:06:16.681Z,102142.57
2018-02-27T12:08:44.378Z,102144.73
2018-02-27T12:11:12.092Z,102141.59
2018-02-27T12:13:39.846Z,102142.48
2018-02-27T12:16:07.589Z,102139.42
2018-02-27T12:18:35.352Z,102146.67
2018-02-27T12:21:03.117Z,102150.76
2018-02-27T12:23:30.841Z,102152.13
2018-02-27T12:25:59.589Z,102151.63
2018-02-27T12:28:27.304Z,102150.64
2018-02-27T12:30:55.069Z,102156.65
2018-02-27T12:33:22.868Z,102159.74
2018-02-27T12:35:50.637Z,102155.37
2018-02-27T12:38:18.361Z,102156.91
2018-02-27T12:40:46.057Z,102170.73
2018-02-27T12:43:13.784Z,102168.06
2018-02-27T12:45:41.485Z,102174.34
2018-02-27T12:48:09.201Z,102174.25
2018-02-27T12:50:36.908Z,102174.16
2018-02-27T12:53:04.688Z,102171.22
2018-02-27T12:55:32.456Z,102168.04
2018-02-27T12:58:00.220Z,102171.92
2018-02-27T13:00:27.942Z,102166.97
2018-02-27T13:02:55.753Z,102172.80
2018-02-27T13:05:23.521Z,102176.23
2018-02-27T13:07:51.229Z,102176.37
2018-02-27T13:10:18.951Z,102184.66
2018-02-27T13:12:46.653Z,102185.48
2018-02-27T13:15:14.366Z,102202.70
2018-02-27T13:17:42.136Z,102200.09
2018-02-27T13:20:10.001Z,102211.97
2018-02-27T13:22:37.688Z,102215.98
2018-02-27T13:25:05.420Z,102232.05
2018-02-27T13:27:33.132Z,102225.87
2018-02-27T13:30:00.818Z,102228.34
2018-02-27T13:32:28.635Z,102237.37
2018-02-27T13:34:56.324Z,102242.77
2018-02-27T13:37:24.065Z,102248.06
2018-02-27T13:39:51.756Z,102260.00
2018-02-27T13:42:19.460Z,102257.50
2018-02-27T13:44:47.248Z,102266.16
2018-02-27T13:47:15.117Z,102267.34
2018-02-27T13:49:42.825Z,102274.25
2018-02-27T13:52:10.568Z,102279.88
2018-02-27T13:54:38.264Z,102284.84
2018-02-27T13:57:05.998Z,102292.84
2018-02-27T13:59:33.741Z,102296.66
2018-02-27T14:02:01.519Z,102297.98
2018-02-27T14:04:29.228Z,102304.04
2018-02-27T14:06:56.934Z,102310.89
2018-02-27T14:09:24.699Z,102309.41
2018-02-27T14:11:52.436Z,102310.17
2018-02-27T14:14:20.140Z,102314.14
2018-02-27T14:16:47.910Z,102317.22
2018-02-27T14:19:15.612Z,102321.13
2018-02-27T14:21:43.296Z,102321.66
2018-02-27T14:24:11.091Z,102326.20
2018-02-27T14:26:38.780Z,102334.72
2018-02-27T14:29:06.528Z,102335.92
2018-02-27T14:31:34.215Z,102320.48
2018-02-27T14:34:01.956Z,102322.50
2018-02-27T14:36:29.649Z,102309.59
2018-02-27T14:38:57.356Z,102310.56
2018-02-27T14:41:25.038Z,102316.77
2018-02-27T14:43:52.814Z,102321.97
2018-02-27T14:46:20.505Z,102323.77
2018-02-27T14:48:48.337Z,102333.17
2018-02-27T14:51:16.020Z,102343.14
2018-02-27T14:53:43.773Z,102344.92
2018-02-27T14:56:11.539Z,102342.33
2018-02-27T14:58:39.306Z,102344.38
2018-02-27T15:01:07.007Z,102344.66
2018-02-27T15:03:34.758Z,102350.61
2018-02-27T15:06:02.492Z,102352.66
2018-02-27T15:08:30.167Z,102352.26
2018-02-27T15:10:57.928Z,102361.89
2018-02-27T15:13:25.692Z,102356.98
2018-02-27T15:15:53.554Z,102366.84
2018-02-27T15:18:21.237Z,102369.04
2018-02-27T15:20:48.945Z,102365.66
2018-02-27T15:23:16.647Z,102374.08
2018-02-27T15:25:44.427Z,102374.66
2018-02-27T15:28:12.185Z,102372.22
2018-02-27T15:30:40.623Z,102381.24
2018-02-27T15:33:08.300Z,102379.88
2018-02-27T15:35:36.005Z,102385.00
2018-02-27T15:38:03.692Z,102382.36
2018-02-27T15:40:31.442Z,102384.47
2018-02-27T15:42:59.188Z,102389.35
2018-02-27T15:45:26.952Z,102391.12
2018-02-27T15:47:54.632Z,102395.12
2018-02-27T15:50:22.389Z,102402.22
2018-02-27T15:52:50.142Z,102408.15
2018-02-27T15:55:17.913Z,102413.70
2018-02-27T15:57:45.613Z,102417.15
2018-02-27T16:00:13.341Z,102417.95
2018-02-27T16:02:41.056Z,102417.98
2018-02-27T16:05:08.773Z,102420.83
2018-02-27T16:07:36.477Z,102427.20
2018-02-27T16:10:04.159Z,102423.53
2018-02-27T16:12:31.864Z,102424.11
2018-02-27T16:14:59.711Z,102422.05
2018-02-27T16:17:27.419Z,102433.09
2018-02-27T16:19:55.152Z,102433.48
2018-02-27T16:22:22.924Z,102431.76
2018-02-27T16:24:50.683Z,102439.31
2018-02-27T16:27:18.448Z,102441.59
2018-02-27T16:29:46.136Z,102436.80
2018-02-27T16:32:13.844Z,102440.00
2018-02-27T16:34:41.545Z,102448.40
2018-02-27T16:37:09.274Z,102448.22
2018-02-27T16:39:36.981Z,102445.96
2018-02-27T16:42:04.739Z,102452.13
2018-02-27T16:44:32.447Z,102451.23
2018-02-27T16:47:00.172Z,102454.33
2018-02-27T16:49:27.931Z,102458.31
2018-02-27T16:51:55.616Z,102459.25
2018-02-27T16:54:23.321Z,102464.61
2018-02-27T16:56:51.124Z,102462.77
2018-02-27T16:59:18.897Z,102463.22
2018-02-27T17:01:46.665Z,102464.53
2018-02-27T17:04:14.424Z,102476.34
2018-02-27T17:06:42.187Z,102473.86
2018-02-27T17:09:09.911Z,102476.43
2018-02-27T17:11:37.620Z,102477.63
2018-02-27T17:14:05.353Z,102481.78
2018-02-27T17:16:33.060Z,102483.35
2018-02-27T17:19:00.739Z,102480.05
2018-02-27T17:21:28.440Z,102486.47
2018-02-27T17:23:56.130Z,102495.23
2018-02-27T17:26:23.837Z,102492.38
2018-02-27T17:28:51.578Z,102489.41
2018-02-27T17:31:19.288Z,102496.72
2018-02-27T17:33:46.980Z,102498.98
2018-02-27T17:36:15.450Z,102493.78
2018-02-27T17:38:43.343Z,102503.42
2018-02-27T17:41:11.056Z,102497.20
2018-02-27T17:43:38.781Z,102500.87
2018-02-27T17:46:06.540Z,102506.36
2018-02-27T17:48:34.232Z,102506.77
2018-02-27T17:51:01.975Z,102507.22
2018-02-27T17:53:29.741Z,102511.52
2018-02-27T17:55:57.425Z,102511.63
2018-02-27T17:58:25.145Z,102513.90
2018-02-27T18:00:52.833Z,102523.99
2018-02-27T18:03:20.539Z,102526.03
2018-02-27T18:05:48.216Z,102527.30
2018-02-27T18:08:16.025Z,102526.41
2018-02-27T18:10:43.705Z,102534.34
2018-02-27T18:13:11.421Z,102524.33
2018-02-27T18:15:39.099Z,102532.56
2018-02-27T18:18:06.805Z,102533.19
2018-02-27T18:20:34.494Z,102531.41
2018-02-27T18:23:02.312Z,102540.16
2018-02-27T18:25:29.993Z,102541.72
2018-02-27T18:27:57.741Z,102549.61
2018-02-27T18:30:25.445Z,102540.88
2018-02-27T18:32:53.164Z,102544.44
2018-02-27T18:35:20.941Z,102548.84
2018-02-27T18:37:48.708Z,102546.89
2018-02-27T18:40:16.416Z,102555.63
2018-02-27T18:42:44.097Z,102560.80
2018-02-27T18:45:11.799Z,102561.16
2018-02-27T18:47:39.558Z,102562.70
2018-02-27T18:50:07.277Z,102567.21
2018-02-27T18:52:34.988Z,102569.93
2018-02-27T18:55:02.752Z,102571.09
2018-02-27T18:57:30.429Z,102569.22
2018-02-27T18:59:58.180Z,102572.13
2018-02-27T19:02:26.016Z,102578.78
2018-02-27T19:04:53.711Z,102576.53
2018-02-27T19:07:21.473Z,102582.37
2018-02-27T19:09:49.179Z,102581.05
2018-02-27T19:12:16.917Z,102591.22
2018-02-27T19:14:44.599Z,102589.86
2018-02-27T19:17:12.296Z,102589.76
2018-02-27T19:19:39.978Z,102596.44
2018-02-27T19:22:07.684Z,102600.19
2018-02-27T19:24:35.389Z,102604.80
2018-02-27T19:27:03.197Z,102611.52
2018-02-27T19:29:30.968Z,102611.61
2018-02-27T19:31:58.722Z,102609.63
2018-02-27T19:34:26.400Z,102612.31
2018-02-27T19:36:54.104Z,102617.97
2018-02-27T19:39:21.828Z,102625.86
2018-02-27T19:41:49.517Z,102632.61
2018-02-27T19:44:17.334Z,102629.66
2018-02-27T19:46:45.124Z,102637.98
2018-02-27T19:49:12.969Z,102639.95
2018-02-27T19:51:40.757Z,102637.68
2018-02-27T19:54:08.520Z,102625.47
2018-02-27T19:56:36.272Z,102630.42
2018-02-27T19:59:03.972Z,102636.96
2018-02-27T20:01:31.669Z,102633.89
2018-02-27T20:03:59.372Z,102636.41
2018-02-27T20:06:27.713Z,102644.48
2018-02-27T20:08:55.523Z,102647.41
2018-02-27T20:11:23.205Z,102643.10
2018-02-27T20:13:50.950Z,102651.17
2018-02-27T20:16:18.796Z,102653.66
2018-02-27T20:18:46.501Z,102654.99
2018-02-27T20:21:14.197Z,102655.31
2018-02-27T20:23:47.637Z,102648.66
2018-02-27T20:26:15.320Z,102638.48
2018-02-27T20:28:48.697Z,102636.20
2018-02-27T20:31:16.468Z,102629.92
2018-02-27T20:33:44.229Z,102639.97
2018-02-27T20:36:12.000Z,102638.67
2018-02-27T20:38:45.156Z,102641.62
2018-02-27T20:41:12.884Z,102642.16
2018-02-27T20:43:40.569Z,102651.19
2018-02-27T20:46:08.441Z,102648.91
2018-02-27T20:48:36.153Z,102657.34
2018-02-27T20:51:03.918Z,102659.48
2018-02-27T20:53:31.676Z,102657.85
2018-02-27T20:55:59.373Z,102660.44
2018-02-27T20:58:27.112Z,102656.47
2018-02-27T21:00:54.821Z,102659.58
2018-02-27T21:03:22.492Z,102665.13
2018-02-27T21:05:50.201Z,102669.42
2018-02-27T21:08:17.891Z,102669.58
2018-02-27T21:10:45.690Z,102676.82
2018-02-27T21:13:13.400Z,102677.34
2018-02-27T21:15:41.088Z,102681.75
2018-02-27T21:18:08.838Z,102687.46
2018-02-27T21:20:36.587Z,102688.99
2018-02-27T21:23:04.360Z,102690.05
2018-02-27T21:25:32.124Z,102688.94
2018-02-27T21:27:59.828Z,102685.16
2018-02-27T21:30:27.556Z,102696.25
2018-02-27T21:32:55.320Z,102689.68
2018-02-27T21:35:23.088Z,102683.47
2018-02-27T21:37:50.797Z,102691.97
2018-02-27T21:40:18.508Z,102681.46
2018-02-27T21:42:46.278Z,102684.40
2018-02-27T21:45:13.961Z,102684.70
2018-02-27T21:47:41.705Z,102685.13
2018-02-27T21:50:09.389Z,102689.57
2018-02-27T21:52:37.149Z,102690.77
2018-02-27T21:55:04.905Z,102694.87
2018-02-27T21:57:32.669Z,102695.39
2018-02-27T22:00:00.380Z,102701.00
2018-02-27T22:02:28.101Z,102702.41
2018-02-27T22:04:57.293Z,102705.20
2018-02-27T22:07:24.981Z,102704.09
2018-02-27T22:09:52.724Z,102711.23
2018-02-27T22:12:20.416Z,102712.64
2018-02-27T22:14:48.124Z,102711.53
2018-02-27T22:17:15.808Z,102709.09
2018-02-27T22:19:43.511Z,102712.11
2018-02-27T22:22:11.196Z,102708.94
2018-02-27T22:24:39.004Z,102706.22
2018-02-27T22:27:06.786Z,102704.34
2018-02-27T22:29:34.644Z,102698.58
2018-02-27T22:32:02.333Z,102704.19
2018-02-27T22:34:30.078Z,102708.73
2018-02-27T22:36:57.788Z,102713.33
2018-02-27T22:39:25.509Z,102703.98
2018-02-27T22:41:53.260Z,102708.25
2018-02-27T22:44:20.948Z,102718.27
2018-02-27T22:46:48.692Z,102719.48
2018-02-27T22:49:16.456Z,102718.82
2018-02-27T22:51:44.160Z,102720.37
2018-02-27T22:54:11.888Z,102730.67
2018-02-27T22:56:39.657Z,102723.53
2018-02-27T22:59:07.350Z,102725.86
2018-02-27T23:01:35.038Z,102722.69
2018-02-27T23:04:02.756Z,102729.02
2018-02-27T23:06:30.516Z,102731.87
2018-02-27T23:08:58.241Z,102730.86
2018-02-27T23:11:25.943Z,102724.86
2018-02-27T23:13:53.658Z,102730.83
2018-02-27T23:16:21.371Z,102729.36
2018-02-27T23:18:49.109Z,102732.01
2018-02-27T23:21:16.796Z,102733.44
2018-02-27T23:23:44.823Z,102739.94
2018-02-27T23:26:16.187Z,102737.12
2018-02-27T23:28:44.256Z,102742.86
2018-02-27T23:31:13.225Z,102739.59
2018-02-27T23:33:41.108Z,102742.79
2018-02-27T23:36:08.799Z,102748.87
2018-02-27T23:38:36.509Z,102746.59
2018-02-27T23:41:04.241Z,102746.42
2018-02-27T23:43:32.016Z,102744.23
2018-02-27T23:45:59.700Z,102741.64
2018-02-27T23:48:27.440Z,102744.95
2018-02-27T23:50:55.152Z,102746.20
2018-02-27T23:53:22.873Z,102747.69
2018-02-27T23:55:50.640Z,102743.84
2018-02-27T23:58:18.405Z,102752.88
